Time;durP1;ratioP1;P1;durP2;ratioP2;P2;SDS_P1;SDS_P2;PMS_P1;PMS_P2;Temp;Humidity;BMP_temperature;BMP_pressure;BME280_temperature;BME280_humidity;BME280_pressure;Samples;Min_cycle;Max_cycle;Signal;HPM_P1;HPM_P2
2023/08/16 00:01:52;;;;;;;9.85;6.75;;;;;;;27.94;45.98;99937.38;4303018;33;34399;-64
2023/08/16 00:04:20;;;;;;;9.50;6.12;;;;;;;27.94;45.92;99931.06;4303097;33;34017;-64
2023/08/16 00:06:48;;;;;;;7.65;5.95;;;;;;;27.93;45.94;99932.13;4303124;33;33297;-64
2023/08/16 00:09:16;;;;;;;9.98;6.55;;;;;;;27.92;45.96;99930.47;4303206;33;34046;-66
2023/08/16 00:11:43;;;;;;;8.93;6.35;;;;;;;27.90;46.02;99935.38;4289981;33;33606;-63
2023/08/16 00:14:11;;;;;;;9.18;6.28;;;;;;;27.90;45.98;99932.63;4303030;33;34714;-64
2023/08/16 00:16:38;;;;;;;10.07;6.18;;;;;;;27.90;45.99;99932.63;4303071;33;33910;-63
2023/08/16 00:19:07;;;;;;;9.80;6.00;;;;;;;27.89;46.01;99929.06;4302980;33;33509;-64
2023/08/16 00:21:34;;;;;;;9.73;6.57;;;;;;;27.88;45.99;99926.56;4303002;33;34620;-63
2023/08/16 00:24:04;;;;;;;13.05;6.18;;;;;;;27.88;45.92;99929.31;4289895;33;33963;-63
2023/08/16 00:26:32;;;;;;;8.45;6.70;;;;;;;27.87;45.97;99931.22;4302698;33;34053;-64
2023/08/16 00:29:01;;;;;;;7.05;5.68;;;;;;;27.86;46.03;99924.09;4277138;33;32823;-63
2023/08/16 00:31:28;;;;;;;7.62;5.87;;;;;;;27.85;45.95;99918.88;4289853;33;33588;-66
2023/08/16 00:33:56;;;;;;;11.65;5.87;;;;;;;27.85;45.86;99927.91;4302808;33;34931;-65
2023/08/16 00:36:24;;;;;;;7.45;6.32;;;;;;;27.85;45.85;99924.34;4314429;33;33955;-63
2023/08/16 00:38:51;;;;;;;9.45;6.40;;;;;;;27.84;45.88;99925.41;4317449;33;34096;-63
2023/08/16 00:41:19;;;;;;;9.20;6.90;;;;;;;27.83;45.84;99923.75;4317037;33;34827;-65
2023/08/16 00:43:46;;;;;;;10.18;6.72;;;;;;;27.83;45.78;99923.75;4317146;33;35027;-64
2023/08/16 00:46:14;;;;;;;8.48;6.43;;;;;;;27.80;45.84;99918.78;4317423;33;34741;-63
2023/08/16 00:48:42;;;;;;;10.70;6.60;;;;;;;27.81;45.80;99923.19;4304093;33;34292;-64
2023/08/16 00:51:10;;;;;;;10.55;6.10;;;;;;;27.81;45.89;99910.31;4304002;33;33804;-63
2023/08/16 00:53:37;;;;;;;9.13;6.10;;;;;;;27.81;45.93;99904.00;4303964;33;33895;-63
2023/08/16 00:56:05;;;;;;;14.90;7.15;;;;;;;27.79;45.99;99906.97;4303888;33;33441;-63
2023/08/16 00:58:36;;;;;;;13.38;6.50;;;;;;;27.79;46.01;99909.72;4292765;33;33536;-63
2023/08/16 01:01:03;;;;;;;8.40;6.43;;;;;;;27.80;45.83;99903.16;4304191;33;34652;-63
2023/08/16 01:03:31;;;;;;;9.85;6.75;;;;;;;27.80;45.86;99910.56;4303937;33;33552;-64
2023/08/16 01:05:59;;;;;;;13.40;6.50;;;;;;;27.79;45.84;99897.91;4317171;33;33834;-63
2023/08/16 01:08:27;;;;;;;10.85;6.30;;;;;;;27.78;45.79;99896.28;4317209;33;33473;-68
2023/08/16 01:11:17;;;;;;;8.65;5.90;;;;;;;27.77;45.76;99889.13;4317009;33;33505;-65
2023/08/16 01:14:03;;;;;;;8.75;6.28;;;;;;;27.80;45.80;99894.13;4303980;33;34748;-63
2023/08/16 01:16:31;;;;;;;9.52;6.43;;;;;;;27.80;45.66;99891.38;4304520;33;34019;-63
2023/08/16 01:18:59;;;;;;;8.75;7.00;;;;;;;27.77;45.74;99894.63;4291891;33;33522;-64
2023/08/16 01:21:26;;;;;;;7.55;6.30;;;;;;;27.75;45.68;99894.06;4291934;33;34280;-65
2023/08/16 01:24:11;;;;;;;8.68;6.80;;;;;;;27.74;45.64;99892.38;4292090;33;33510;-63
2023/08/16 01:26:39;;;;;;;8.95;6.47;;;;;;;27.76;45.62;99895.72;4303776;33;33965;-63
2023/08/16 01:29:07;;;;;;;7.65;6.12;;;;;;;27.73;45.68;99897.03;4303792;33;33472;-63
2023/08/16 01:31:34;;;;;;;10.85;6.30;;;;;;;27.71;45.60;99891.81;4291825;33;34536;-63
2023/08/16 01:34:02;;;;;;;10.95;7.15;;;;;;;27.72;45.52;99889.88;4303851;33;33330;-63
2023/08/16 01:36:29;;;;;;;10.93;6.32;;;;;;;27.69;45.53;99885.69;4316730;33;34611;-67
2023/08/16 01:38:57;;;;;;;11.60;6.55;;;;;;;27.69;45.55;99893.09;4317165;33;33988;-63
2023/08/16 01:41:29;;;;;;;9.77;6.37;;;;;;;27.68;45.60;99885.97;4318420;33;34075;-63
2023/08/16 01:43:56;;;;;;;9.23;6.40;;;;;;;27.66;45.62;99890.88;4305641;33;33869;-63
2023/08/16 01:46:24;;;;;;;7.80;6.40;;;;;;;27.66;45.62;99896.38;4305309;33;33794;-63
2023/08/16 01:48:52;;;;;;;10.25;6.55;;;;;;;27.66;45.62;99893.63;4293141;33;32826;-63
2023/08/16 01:51:20;;;;;;;10.70;6.75;;;;;;;27.64;45.60;99890.28;4293657;33;34659;-63
2023/08/16 01:53:52;;;;;;;10.68;6.50;;;;;;;27.65;45.59;99889.19;4305054;33;34066;-63
2023/08/16 01:56:20;;;;;;;9.43;6.40;;;;;;;27.64;45.66;99890.28;4305282;33;33720;-63
2023/08/16 01:58:48;;;;;;;9.75;5.87;;;;;;;27.65;45.61;99895.53;4318828;33;33349;-64
2023/08/16 02:01:15;;;;;;;11.68;6.95;;;;;;;27.62;45.57;99887.81;4318295;33;34020;-63
2023/08/16 02:03:43;;;;;;;8.02;6.65;;;;;;;27.63;45.61;99889.47;4318458;33;33898;-63
2023/08/16 02:06:11;;;;;;;7.95;6.57;;;;;;;27.62;45.63;99884.25;4318399;33;33996;-63
2023/08/16 02:08:39;;;;;;;9.77;6.40;;;;;;;27.61;45.66;99890.81;4318298;33;33625;-63
2023/08/16 02:11:06;;;;;;;10.05;6.50;;;;;;;27.60;45.73;99881.72;4304892;33;33045;-63
2023/08/16 02:13:34;;;;;;;8.70;6.10;;;;;;;27.60;45.74;99889.13;4318320;33;34950;-65
2023/08/16 02:16:02;;;;;;;10.38;6.90;;;;;;;27.59;45.75;99891.03;4318438;33;34115;-63
2023/08/16 02:18:30;;;;;;;7.90;6.18;;;;;;;27.59;45.75;99876.50;4318607;33;33464;-63
2023/08/16 02:20:58;;;;;;;11.80;6.47;;;;;;;27.59;45.76;99877.34;4318458;33;33916;-63
2023/08/16 02:23:25;;;;;;;9.98;6.35;;;;;;;27.58;45.71;99877.59;4304887;33;34426;-65
2023/08/16 02:25:53;;;;;;;10.32;6.93;;;;;;;27.57;45.71;99868.56;4318355;33;33511;-63
2023/08/16 02:28:20;;;;;;;7.53;6.25;;;;;;;27.56;45.72;99872.37;4305133;33;33059;-63
2023/08/16 02:30:48;;;;;;;8.75;6.18;;;;;;;27.55;45.75;99872.59;4318010;33;33866;-64
2023/08/16 02:33:17;;;;;;;9.52;7.15;;;;;;;27.55;45.77;99872.59;4318525;33;33590;-64
2023/08/16 02:35:44;;;;;;;7.70;6.10;;;;;;;27.55;45.78;99870.69;4313542;33;34512;-63
2023/08/16 02:38:12;;;;;;;8.52;6.30;;;;;;;27.56;45.73;99868.78;4303478;33;33381;-63
2023/08/16 02:40:41;;;;;;;9.20;6.55;;;;;;;27.54;45.75;99862.75;4303712;33;33843;-63
2023/08/16 02:43:11;;;;;;;8.77;6.80;;;;;;;27.54;45.76;99866.31;4303609;33;33898;-68
2023/08/16 02:45:39;;;;;;;9.32;6.87;;;;;;;27.53;45.79;99870.13;4303505;33;34729;-69
2023/08/16 02:48:08;;;;;;;13.93;6.68;;;;;;;27.53;45.82;99861.09;4303682;33;33383;-63
2023/08/16 02:50:36;;;;;;;9.18;6.53;;;;;;;27.53;45.77;99866.56;4303047;33;33808;-64
2023/08/16 02:53:03;;;;;;;10.68;6.35;;;;;;;27.52;45.79;99864.91;4303359;33;34679;-64
2023/08/16 02:55:31;;;;;;;8.63;6.82;;;;;;;27.52;45.79;99868.47;4303384;33;34123;-63
2023/08/16 02:57:59;;;;;;;9.35;6.32;;;;;;;27.51;45.87;99864.06;4303528;33;33531;-63
2023/08/16 03:00:27;;;;;;;8.68;6.35;;;;;;;27.50;45.75;99873.38;4303741;33;34765;-63
2023/08/16 03:02:55;;;;;;;8.63;6.30;;;;;;;27.47;45.81;99873.88;4303476;33;33483;-65
2023/08/16 03:05:23;;;;;;;14.00;7.00;;;;;;;27.46;45.88;99869.47;4303471;33;33566;-63
2023/08/16 03:07:52;;;;;;;9.27;6.70;;;;;;;27.44;45.94;99879.87;4290565;33;33337;-63
2023/08/16 03:10:20;;;;;;;10.45;6.72;;;;;;;27.45;45.89;99879.59;4290274;33;33879;-63
2023/08/16 03:12:48;;;;;;;9.73;6.40;;;;;;;27.45;45.91;99878.78;4303351;33;33829;-63
2023/08/16 03:15:15;;;;;;;8.77;6.57;;;;;;;27.44;46.01;99879.87;4303474;33;34599;-63
2023/08/16 03:17:43;;;;;;;7.93;5.90;;;;;;;27.44;46.04;99880.69;4303406;33;33507;-63
2023/08/16 03:20:11;;;;;;;10.80;6.50;;;;;;;27.44;45.86;99880.69;4303258;33;34466;-64
2023/08/16 03:22:38;;;;;;;9.63;6.50;;;;;;;27.42;45.81;99884.78;4303345;33;33881;-63
2023/08/16 03:25:06;;;;;;;11.30;6.72;;;;;;;27.40;45.86;99882.28;4303391;33;34520;-61
2023/08/16 03:27:34;;;;;;;10.05;6.75;;;;;;;27.38;45.85;99883.62;4290106;33;33475;-63
2023/08/16 03:30:02;;;;;;;9.65;6.95;;;;;;;27.36;45.88;99891.25;4303522;33;33510;-63
2023/08/16 03:32:31;;;;;;;9.93;6.57;;;;;;;27.34;46.04;99891.50;4303598;33;33919;-63
2023/08/16 03:34:58;;;;;;;9.02;6.18;;;;;;;27.35;46.05;99889.59;4303115;33;34268;-64
2023/08/16 03:37:26;;;;;;;11.12;6.43;;;;;;;27.34;46.05;99893.41;4318167;33;32877;-63
2023/08/16 03:39:54;;;;;;;9.18;6.82;;;;;;;27.33;46.07;99892.59;4317812;33;34100;-63
2023/08/16 03:42:21;;;;;;;9.75;6.20;;;;;;;27.34;46.03;99896.16;4317652;33;34999;-63
2023/08/16 03:44:49;;;;;;;11.25;7.00;;;;;;;27.35;46.08;99895.06;4317648;33;34024;-63
2023/08/16 03:47:17;;;;;;;11.60;6.32;;;;;;;27.35;46.10;99900.56;4317780;33;33658;-63
2023/08/16 03:49:44;;;;;;;12.63;6.53;;;;;;;27.35;46.13;99906.84;4317541;33;33862;-63
2023/08/16 03:52:12;;;;;;;10.13;6.97;;;;;;;27.35;46.10;99900.56;4317672;33;33795;-63
2023/08/16 03:54:40;;;;;;;10.00;7.22;;;;;;;27.35;46.06;99898.62;4317776;33;34600;-63
2023/08/16 03:57:07;;;;;;;9.18;6.72;;;;;;;27.34;46.11;99894.25;4317440;33;34801;-63
2023/08/16 03:59:35;;;;;;;7.68;6.22;;;;;;;27.35;46.08;99903.28;4317665;33;33526;-63
2023/08/16 04:02:03;;;;;;;11.85;7.22;;;;;;;27.34;46.12;99898.91;4317395;33;34376;-64
2023/08/16 04:04:31;;;;;;;9.50;6.78;;;;;;;27.34;46.16;99896.97;4303624;33;32802;-68
2023/08/16 04:06:59;;;;;;;9.23;6.87;;;;;;;27.33;46.16;99889.03;4317748;33;34129;-64
2023/08/16 04:09:27;;;;;;;8.80;6.85;;;;;;;27.32;46.13;99890.91;4304380;33;34757;-63
2023/08/16 04:11:55;;;;;;;11.57;7.05;;;;;;;27.32;46.16;99899.12;4317432;33;34836;-63
2023/08/16 04:14:22;;;;;;;11.82;7.72;;;;;;;27.32;46.28;99901.03;4317674;33;33477;-63
2023/08/16 04:16:50;;;;;;;10.65;7.00;;;;;;;27.32;46.23;99915.56;4304467;33;33058;-63
2023/08/16 04:19:17;;;;;;;9.35;6.90;;;;;;;27.31;46.16;99910.34;4317626;33;34634;-71
2023/08/16 04:21:48;;;;;;;9.52;8.32;;;;;;;27.29;46.22;99918.81;4317581;33;34088;-66
2023/08/16 04:24:16;;;;;;;10.80;6.55;;;;;;;27.30;46.27;99916.91;4317581;33;33961;-64
2023/08/16 04:26:44;;;;;;;11.18;7.45;;;;;;;27.32;46.24;99922.97;4304607;33;33251;-72
2023/08/16 04:29:11;;;;;;;11.95;7.65;;;;;;;27.31;46.21;99910.34;4317660;33;33816;-70
2023/08/16 04:31:40;;;;;;;9.50;6.90;;;;;;;27.32;46.19;99917.47;4317510;33;34023;-64
2023/08/16 04:34:08;;;;;;;11.88;7.05;;;;;;;27.32;46.17;99918.31;4317453;33;33885;-64
2023/08/16 04:36:35;;;;;;;8.98;7.20;;;;;;;27.31;46.20;99919.38;4317223;33;33280;-63
2023/08/16 04:39:03;;;;;;;9.70;6.62;;;;;;;27.32;46.33;99912.81;4317366;33;34769;-64
2023/08/16 04:41:32;;;;;;;11.80;7.47;;;;;;;27.31;46.31;99910.34;4317741;33;34807;-64
2023/08/16 04:43:59;;;;;;;9.70;7.05;;;;;;;27.32;46.29;99918.31;4304134;33;33522;-69
2023/08/16 04:46:27;;;;;;;11.18;7.10;;;;;;;27.32;46.39;99925.69;4317477;33;33729;-64
2023/08/16 04:48:56;;;;;;;12.40;7.15;;;;;;;27.32;46.42;99925.69;4317659;33;33529;-66
2023/08/16 04:51:23;;;;;;;8.00;6.70;;;;;;;27.30;46.47;99925.13;4304330;33;34421;-64
2023/08/16 04:53:51;;;;;;;8.52;6.72;;;;;;;27.32;46.57;99929.25;4317361;33;34495;-67
2023/08/16 04:56:20;;;;;;;8.32;6.28;;;;;;;27.31;46.59;99930.34;4317449;33;32376;-71
2023/08/16 04:58:47;;;;;;;9.90;6.62;;;;;;;27.32;46.59;99933.91;4317463;33;34018;-65
2023/08/16 05:01:17;;;;;;;11.98;7.35;;;;;;;27.32;46.58;99922.97;4291182;33;34718;-63
2023/08/16 05:03:50;;;;;;;9.52;6.90;;;;;;;27.32;46.57;99920.22;4308865;33;34330;-64
2023/08/16 05:06:18;;;;;;;9.20;6.18;;;;;;;27.34;46.65;99909.84;4301176;33;33108;-64
2023/08/16 05:08:48;;;;;;;9.93;7.10;;;;;;;27.34;46.66;99910.69;4301571;33;34633;-65
2023/08/16 05:11:16;;;;;;;13.05;8.07;;;;;;;27.35;46.74;99919.72;4302814;33;33606;-68
2023/08/16 05:13:45;;;;;;;10.30;6.90;;;;;;;27.35;46.87;99923.28;4302463;33;34543;-64
2023/08/16 05:16:13;;;;;;;10.13;6.70;;;;;;;27.35;46.90;99919.72;4302577;33;33166;-63
2023/08/16 05:18:40;;;;;;;9.77;7.03;;;;;;;27.38;46.81;99927.47;4302571;33;34595;-66
2023/08/16 05:21:08;;;;;;;9.45;6.60;;;;;;;27.38;47.04;99913.75;4301404;33;33886;-63
2023/08/16 05:23:35;;;;;;;10.18;7.50;;;;;;;27.38;46.86;99919.25;4302403;33;33505;-64
2023/08/16 05:26:03;;;;;;;9.57;7.30;;;;;;;27.38;46.93;99921.97;4302489;33;33548;-64
2023/08/16 05:28:31;;;;;;;10.57;7.28;;;;;;;27.39;46.87;99923.63;4302528;33;33946;-63
2023/08/16 05:31:11;;;;;;;12.82;7.95;;;;;;;27.38;46.86;99921.97;4302376;33;33738;-64
2023/08/16 05:33:39;;;;;;;9.55;7.10;;;;;;;27.40;46.95;99920.62;4302489;33;35283;-63
2023/08/16 05:36:07;;;;;;;14.68;7.45;;;;;;;27.38;46.97;99916.50;4303531;33;33436;-64
2023/08/16 05:38:34;;;;;;;12.25;7.62;;;;;;;27.38;46.99;99920.06;4317309;33;33807;-63
2023/08/16 05:41:03;;;;;;;9.82;7.80;;;;;;;27.37;47.10;99923.91;4316967;33;33944;-63
2023/08/16 05:43:31;;;;;;;13.45;7.82;;;;;;;27.37;47.19;99923.03;4316643;33;34707;-63
2023/08/16 05:45:58;;;;;;;11.20;7.87;;;;;;;27.37;47.00;99931.25;4316784;33;33312;-64
2023/08/16 05:48:26;;;;;;;13.07;7.62;;;;;;;27.35;47.01;99936.16;4291499;33;33449;-64
2023/08/16 05:50:54;;;;;;;13.30;7.47;;;;;;;27.35;47.08;99937.00;4316543;33;34056;-64
2023/08/16 05:53:21;;;;;;;10.57;7.07;;;;;;;27.37;46.99;99936.72;4316556;33;34572;-64
2023/08/16 05:55:49;;;;;;;12.80;8.05;;;;;;;27.35;47.07;99934.25;4316552;33;33527;-63
2023/08/16 05:58:17;;;;;;;10.95;7.53;;;;;;;27.37;47.09;99936.72;4316465;33;34664;-63
2023/08/16 06:00:46;;;;;;;12.98;7.60;;;;;;;27.38;47.18;99935.69;4316558;33;34761;-63
2023/08/16 06:03:14;;;;;;;14.38;7.18;;;;;;;27.39;47.28;99940.91;4316018;33;34281;-63
2023/08/16 06:05:42;;;;;;;10.77;7.45;;;;;;;27.40;47.37;99948.03;4316384;33;33248;-63
2023/08/16 06:08:09;;;;;;;9.65;7.00;;;;;;;27.40;47.56;99933.50;4316422;33;34637;-63
2023/08/16 06:10:37;;;;;;;13.27;7.60;;;;;;;27.41;47.49;99940.63;4316236;33;33928;-63
2023/08/16 06:13:04;;;;;;;9.15;7.45;;;;;;;27.41;47.43;99930.50;4316236;33;33852;-63
2023/08/16 06:15:32;;;;;;;12.57;7.90;;;;;;;27.44;47.47;99934.66;4316415;33;33259;-64
2023/08/16 06:18:00;;;;;;;9.98;7.22;;;;;;;27.44;47.46;99940.16;4316210;33;33887;-63
2023/08/16 06:20:27;;;;;;;9.65;6.97;;;;;;;27.46;47.49;99940.72;4316446;33;33917;-63
2023/08/16 06:22:55;;;;;;;11.35;7.03;;;;;;;27.45;47.52;99939.91;4316217;33;34002;-63
2023/08/16 06:25:23;;;;;;;12.15;6.97;;;;;;;27.48;47.58;99935.00;4316063;33;33343;-63
2023/08/16 06:27:50;;;;;;;9.27;7.18;;;;;;;27.48;47.55;99941.31;4318171;33;34306;-63
2023/08/16 06:30:18;;;;;;;12.73;7.25;;;;;;;27.49;47.58;99948.44;4318224;33;34007;-63
2023/08/16 06:32:46;;;;;;;10.50;7.72;;;;;;;27.50;47.77;99954.75;4315100;33;33890;-70
2023/08/16 06:35:13;;;;;;;11.70;7.80;;;;;;;27.52;47.91;99953.44;4317693;33;34723;-66
2023/08/16 06:37:41;;;;;;;13.10;7.53;;;;;;;27.54;47.86;99951.25;4317615;33;34483;-67
2023/08/16 06:40:09;;;;;;;13.35;7.03;;;;;;;27.53;47.90;99946.03;4317554;33;34759;-66
2023/08/16 06:42:37;;;;;;;11.85;7.82;;;;;;;27.54;48.04;99934.00;4317619;33;33912;-75
2023/08/16 06:45:05;;;;;;;13.73;7.18;;;;;;;27.53;47.97;99933.16;4317464;33;33156;-72
2023/08/16 06:47:33;;;;;;;10.70;7.27;;;;;;;27.54;47.96;99931.25;4317735;33;33677;-71
2023/08/16 06:50:01;;;;;;;8.80;6.93;;;;;;;27.55;48.08;99933.75;4317584;33;33881;-69
2023/08/16 06:52:30;;;;;;;8.70;7.10;;;;;;;27.54;47.99;99926.59;4317460;33;33974;-74
2023/08/16 06:54:58;;;;;;;10.40;7.53;;;;;;;27.55;47.96;99925.50;4317521;33;33075;-65
2023/08/16 06:57:25;;;;;;;12.48;7.78;;;;;;;27.55;48.05;99922.78;4317577;33;33378;-73
2023/08/16 06:59:53;;;;;;;9.52;7.72;;;;;;;27.55;48.09;99925.50;4317673;33;34914;-64
2023/08/16 07:02:21;;;;;;;11.32;7.10;;;;;;;27.56;48.17;99926.34;4317357;33;33819;-63
2023/08/16 07:04:50;;;;;;;10.32;7.65;;;;;;;27.56;48.25;99927.19;4317666;33;34499;-67
2023/08/16 07:07:18;;;;;;;11.48;8.15;;;;;;;27.56;48.37;99923.59;4317479;33;33732;-67
2023/08/16 07:09:46;;;;;;;10.40;7.37;;;;;;;27.58;48.48;99926.94;4304060;33;34816;-65
2023/08/16 07:12:14;;;;;;;13.25;8.02;;;;;;;27.58;48.55;99930.50;4317482;33;34546;-70
2023/08/16 07:14:41;;;;;;;12.20;7.40;;;;;;;27.59;48.56;99928.59;4317384;33;33505;-68
2023/08/16 07:17:09;;;;;;;14.73;8.48;;;;;;;27.58;48.57;99927.75;4317414;33;33473;-63
2023/08/16 07:19:37;;;;;;;15.68;8.32;;;;;;;27.59;48.64;99929.41;4317375;33;34706;-73
2023/08/16 07:22:04;;;;;;;15.20;9.00;;;;;;;27.60;48.81;99933.81;4304241;33;34010;-73
2023/08/16 07:24:32;;;;;;;10.57;8.13;;;;;;;27.60;48.88;99936.56;4304017;33;33439;-64
2023/08/16 07:27:00;;;;;;;13.27;8.50;;;;;;;27.61;48.78;99931.94;4317028;33;33748;-71
2023/08/16 07:29:27;;;;;;;14.07;8.63;;;;;;;27.61;48.81;99937.41;4315506;33;34702;-64
2023/08/16 07:31:57;;;;;;;11.30;8.40;;;;;;;27.62;48.83;99941.81;4301920;33;33783;-73
2023/08/16 07:34:24;;;;;;;14.30;8.40;;;;;;;27.59;48.90;99945.03;4315819;33;33064;-70
2023/08/16 07:36:52;;;;;;;14.15;9.27;;;;;;;27.62;48.91;99952.75;4316363;33;34265;-65
2023/08/16 07:39:19;;;;;;;14.52;8.77;;;;;;;27.62;48.95;99959.06;4316401;33;34750;-64
2023/08/16 07:41:47;;;;;;;11.93;9.27;;;;;;;27.63;48.99;99963.47;4303028;33;32663;-73
2023/08/16 07:44:15;;;;;;;12.23;8.80;;;;;;;27.62;49.06;99952.75;4317306;33;33328;-64
2023/08/16 07:46:43;;;;;;;10.60;8.65;;;;;;;27.63;49.14;99947.03;4316963;33;34294;-70
2023/08/16 07:49:10;;;;;;;17.65;9.18;;;;;;;27.63;49.19;99957.16;4317389;33;34732;-65
2023/08/16 07:51:38;;;;;;;10.32;8.52;;;;;;;27.64;49.14;99964.28;4316978;33;34193;-72
2023/08/16 07:54:06;;;;;;;14.80;8.50;;;;;;;27.63;49.05;99957.16;4317160;33;33436;-73
2023/08/16 07:56:33;;;;;;;12.85;9.15;;;;;;;27.63;49.04;99955.25;4317146;33;34213;-73
2023/08/16 07:59:01;;;;;;;13.75;9.20;;;;;;;27.62;49.04;99961.00;4317259;33;34552;-71
2023/08/16 08:01:29;;;;;;;12.85;9.18;;;;;;;27.64;49.14;99958.81;4317151;33;33726;-73
2023/08/16 08:03:57;;;;;;;13.07;9.27;;;;;;;27.64;49.17;99965.13;4317295;33;34289;-76
2023/08/16 08:06:25;;;;;;;14.85;9.75;;;;;;;27.64;49.13;99964.28;4317292;33;33930;-72
2023/08/16 08:08:52;;;;;;;10.55;8.57;;;;;;;27.64;49.13;99969.78;4317086;33;34259;-68
2023/08/16 08:11:20;;;;;;;13.38;8.77;;;;;;;27.65;49.19;99982.41;4317140;33;33716;-72
2023/08/16 08:13:48;;;;;;;11.68;8.30;;;;;;;27.64;49.24;99978.81;4316916;33;34378;-77
2023/08/16 08:16:15;;;;;;;10.90;8.65;;;;;;;27.65;49.22;99988.75;4316989;33;33345;-68
2023/08/16 08:18:43;;;;;;;12.00;8.45;;;;;;;27.66;49.38;99995.03;4317011;33;34540;-77
2023/08/16 08:21:11;;;;;;;11.45;8.60;;;;;;;27.65;49.27;99998.84;4316789;33;34981;-65
2023/08/16 08:23:39;;;;;;;12.85;8.45;;;;;;;27.65;49.20;100001.59;4317114;33;34392;-74
2023/08/16 08:26:10;;;;;;;12.27;8.27;;;;;;;27.66;49.26;100001.34;4316858;33;33897;-67
2023/08/16 08:28:38;;;;;;;14.43;9.13;;;;;;;27.65;49.26;100002.44;4316704;33;34840;-75
2023/08/16 08:31:06;;;;;;;15.32;8.15;;;;;;;27.66;49.24;100006.84;4316781;33;34577;-71
2023/08/16 08:33:34;;;;;;;13.00;9.45;;;;;;;27.66;49.29;100001.34;4316819;33;33727;-72
2023/08/16 08:36:03;;;;;;;11.57;8.80;;;;;;;27.67;49.30;100002.19;4310542;33;34111;-70
2023/08/16 08:38:32;;;;;;;12.48;9.07;;;;;;;27.69;49.29;100002.75;4302058;33;34038;-72
2023/08/16 08:41:00;;;;;;;11.10;8.65;;;;;;;27.71;49.28;100003.34;4302247;33;33768;-66
2023/08/16 08:43:33;;;;;;;16.35;9.15;;;;;;;27.73;49.26;100005.88;4302153;33;33738;-73
2023/08/16 08:46:12;;;;;;;11.77;9.00;;;;;;;27.74;49.28;100010.25;4290756;33;33922;-70
2023/08/16 08:48:40;;;;;;;15.48;9.50;;;;;;;27.75;49.22;100007.28;4288394;33;34896;-72
2023/08/16 08:51:07;;;;;;;15.00;8.98;;;;;;;27.76;49.27;100010.84;4302247;33;34558;-70
2023/08/16 08:53:35;;;;;;;15.82;9.85;;;;;;;27.76;49.27;100008.94;4289192;33;33013;-75
2023/08/16 08:56:07;;;;;;;18.60;9.70;;;;;;;27.76;49.25;100014.44;4301135;33;33984;-75
2023/08/16 08:58:35;;;;;;;13.27;9.32;;;;;;;27.77;49.25;100018.81;4313824;33;33666;-71
2023/08/16 09:01:03;;;;;;;15.82;9.02;;;;;;;27.78;49.23;100019.66;4288168;33;34042;-74
2023/08/16 09:03:31;;;;;;;13.57;8.75;;;;;;;27.79;49.21;100015.81;4286887;33;33535;-69
2023/08/16 09:05:59;;;;;;;10.85;8.73;;;;;;;27.80;49.14;100014.75;4287362;33;35286;-71
2023/08/16 09:08:26;;;;;;;13.07;9.75;;;;;;;27.79;49.13;100011.16;4300376;33;33506;-73
2023/08/16 09:10:54;;;;;;;12.65;9.35;;;;;;;27.79;49.11;100013.06;4286705;33;33679;-68
2023/08/16 09:13:21;;;;;;;12.13;9.38;;;;;;;27.80;49.09;100012.84;4287200;33;33859;-72
2023/08/16 09:15:49;;;;;;;10.90;9.07;;;;;;;27.80;49.12;100014.75;4287845;33;33921;-65
2023/08/16 09:18:17;;;;;;;12.55;9.35;;;;;;;27.80;49.09;100020.25;4300810;33;34713;-73
2023/08/16 09:20:45;;;;;;;15.93;10.35;;;;;;;27.80;49.13;100025.72;4287908;33;33786;-63
2023/08/16 09:23:13;;;;;;;14.35;9.85;;;;;;;27.80;49.14;100023.00;4301155;33;33113;-65
2023/08/16 09:25:41;;;;;;;18.62;10.38;;;;;;;27.79;49.17;100022.12;4303858;33;34612;-62
2023/08/16 09:28:09;;;;;;;15.57;11.30;;;;;;;27.79;49.43;100022.12;4302401;33;34842;-65
2023/08/16 09:30:37;;;;;;;15.43;11.02;;;;;;;27.79;49.41;100029.53;4302193;33;34031;-62
2023/08/16 09:33:04;;;;;;;17.12;11.75;;;;;;;27.80;49.37;100017.50;4302399;33;33536;-71
2023/08/16 09:35:33;;;;;;;14.73;11.10;;;;;;;27.81;49.44;100016.41;4315423;33;34650;-63
2023/08/16 09:38:00;;;;;;;14.18;11.23;;;;;;;27.81;49.41;100024.66;4290344;33;34728;-65
2023/08/16 09:40:53;;;;;;;13.23;10.50;;;;;;;27.83;49.41;100025.22;4303878;33;34344;-65
2023/08/16 09:43:21;;;;;;;12.45;10.50;;;;;;;27.83;49.40;100019.72;4315172;33;34207;-70
2023/08/16 09:45:53;;;;;;;17.90;12.13;;;;;;;27.83;49.42;100016.97;4315241;33;33943;-61
2023/08/16 09:48:21;;;;;;;16.58;11.12;;;;;;;27.84;49.51;100016.75;4301999;33;34764;-69
2023/08/16 09:50:49;;;;;;;14.52;11.43;;;;;;;27.86;49.50;100016.50;4301691;33;34378;-68
2023/08/16 09:53:36;;;;;;;14.32;10.88;;;;;;;27.87;49.46;100009.91;4310685;33;33647;-66
2023/08/16 09:56:07;;;;;;;16.67;10.63;;;;;;;27.87;49.55;100012.66;4282724;33;172148;-68
2023/08/16 09:58:38;;;;;;;15.07;10.40;;;;;;;27.88;49.52;100014.31;4298555;33;32836;-64
2023/08/16 10:01:06;;;;;;;14.77;11.23;;;;;;;27.87;49.60;99999.78;4289406;33;33774;-68
2023/08/16 10:03:37;;;;;;;15.43;11.02;;;;;;;27.87;49.65;100008.00;4303824;33;33411;-62
2023/08/16 10:06:05;;;;;;;16.50;10.63;;;;;;;27.87;49.67;100008.00;4303573;33;33935;-67
2023/08/16 10:08:47;;;;;;;13.68;10.93;;;;;;;27.88;49.75;100009.66;4302140;33;33956;-66
2023/08/16 10:11:15;;;;;;;13.82;10.88;;;;;;;27.91;49.75;100022.06;4302110;33;33856;-63
2023/08/16 10:13:43;;;;;;;21.60;11.45;;;;;;;27.93;49.62;100022.63;4307169;33;33291;-66
2023/08/16 10:16:13;;;;;;;15.52;11.12;;;;;;;27.93;49.55;100025.34;4317948;33;33605;-68
2023/08/16 10:18:45;;;;;;;14.75;10.48;;;;;;;27.94;49.57;100019.66;4302947;33;34838;-62
2023/08/16 10:21:16;;;;;;;12.25;10.50;;;;;;;27.97;49.45;100012.81;4298894;33;34121;-66
2023/08/16 10:23:44;;;;;;;15.60;10.40;;;;;;;27.96;49.50;100020.22;4293570;33;33643;-68
2023/08/16 10:26:13;;;;;;;16.25;11.20;;;;;;;27.94;49.57;100019.66;4298400;33;33869;-67
2023/08/16 10:28:43;;;;;;;15.48;10.43;;;;;;;27.93;49.58;100025.34;4302343;33;34844;-72
2023/08/16 10:31:11;;;;;;;16.50;10.43;;;;;;;27.94;49.53;100029.78;4298096;33;34601;-65
2023/08/16 10:33:44;;;;;;;16.12;10.65;;;;;;;27.94;49.49;100030.63;4304770;33;33411;-69
2023/08/16 10:36:12;;;;;;;12.37;10.23;;;;;;;27.95;49.46;100037.75;4281308;33;34285;-66
2023/08/16 10:38:43;;;;;;;11.38;9.45;;;;;;;27.96;49.41;100025.69;4304301;33;34736;-63
2023/08/16 10:41:14;;;;;;;13.43;10.23;;;;;;;27.96;49.36;100020.22;4292442;33;34554;-66
2023/08/16 10:43:47;;;;;;;13.60;9.70;;;;;;;27.97;49.33;100016.37;4285610;33;34258;-67
2023/08/16 10:46:31;;;;;;;12.25;8.90;;;;;;;27.96;49.27;100022.94;4311315;33;34422;-64
2023/08/16 10:49:00;;;;;;;12.90;8.65;;;;;;;27.99;49.18;100027.13;4295326;33;33106;-65
2023/08/16 10:51:30;;;;;;;13.18;10.40;;;;;;;27.99;49.15;100034.53;4304615;33;34190;-65
2023/08/16 10:53:58;;;;;;;17.70;10.02;;;;;;;28.00;49.06;100022.47;4295860;33;32748;-66
2023/08/16 10:56:35;;;;;;;12.65;9.13;;;;;;;28.02;49.01;100023.84;4288924;33;34696;-69
2023/08/16 10:59:05;;;;;;;13.98;9.95;;;;;;;28.03;49.02;100028.28;4294800;33;33873;-67
2023/08/16 11:01:34;;;;;;;;;;;;;;;28.00;49.08;100017.81;4292769;33;33091;-66
2023/08/16 11:04:06;;;;;;;14.55;9.13;;;;;;;28.13;48.79;100022.94;4292576;33;32288;-65
2023/08/16 11:06:37;;;;;;;14.15;9.68;;;;;;;28.04;49.01;100016.22;4301588;33;33823;-64
2023/08/16 11:09:14;;;;;;;14.25;9.85;;;;;;;28.01;49.12;100004.91;4302048;33;34747;-64
2023/08/16 11:11:44;;;;;;;11.88;10.05;;;;;;;28.01;49.14;100004.91;4302360;33;34967;-65
2023/08/16 11:14:11;;;;;;;12.77;9.13;;;;;;;28.00;49.17;100014.22;4302831;33;33604;-66
2023/08/16 11:16:39;;;;;;;12.55;9.30;;;;;;;28.01;49.19;100004.91;4311189;33;34171;-65
2023/08/16 11:19:08;;;;;;;10.50;9.20;;;;;;;28.01;49.21;100004.91;4304315;33;33160;-67
2023/08/16 11:21:44;;;;;;;11.98;9.68;;;;;;;28.03;49.25;99997.28;4293173;33;33889;-64
2023/08/16 11:24:12;;;;;;;15.90;10.50;;;;;;;28.03;49.29;100000.03;4304906;33;34006;-65
2023/08/16 11:26:40;;;;;;;18.02;10.05;;;;;;;28.04;49.24;100008.00;4303921;33;34646;-64
2023/08/16 11:29:08;;;;;;;13.18;9.35;;;;;;;28.06;49.26;100003.06;4317253;33;33697;-65
2023/08/16 11:31:36;;;;;;;12.40;9.30;;;;;;;28.08;49.21;100006.41;4317289;33;33950;-69